aviador You're here:

KPOV Decoded Metar

in
Report Time2017-08-20 18:45:00
UTC Time2017-08-20 19:10:53
Flight Rules vfr VFR
Wind250° at 03 kt
W.Decomp.*RWY 27: 2.8 kt HW 1 kt LCW
W.Rank250° ranks 1
Current wind is below 250° avg. (7.6)
Visibility9999 m
Phenomena:N/A
Clouds:N/A
Expected CloudBase > 6,400 ft AGL from Temp-Dew spread
CeilingNone
Temp28°C
Dew Point12°C (37% RH)
Heat Index27.5°C
AAT27.5°C
QNH1021 hPa
Raw Report
METAR KPOV 201845Z AUTO 25003KT 7SM CLR 28/12 A3014 RMK AO2 T02750120=

Extra information for KPOV:More info

Social comments